createdAt,value
2023-05-09T00:05:22.851Z,18.50
2023-05-09T00:22:27.518Z,18.40
2023-05-09T00:25:53.642Z,18.40
2023-05-09T00:56:32.647Z,18.00
2023-05-09T01:21:04.624Z,17.70
2023-05-09T01:45:33.845Z,17.50
2023-05-09T01:52:27.324Z,17.60
2023-05-09T02:12:58.459Z,17.30
2023-05-09T02:26:37.462Z,17.20
2023-05-09T03:24:46.920Z,17.30
2023-05-09T03:31:36.318Z,17.40
2023-05-09T04:16:08.708Z,17.10
2023-05-09T04:57:20.689Z,17.40
2023-05-09T05:48:47.797Z,19.80
2023-05-09T06:09:14.976Z,20.10
2023-05-09T06:12:38.647Z,20.20
2023-05-09T06:23:11.411Z,21.50
2023-05-09T08:08:45.428Z,31.50
2023-05-09T08:12:09.600Z,31.80
2023-05-09T08:15:33.178Z,32.00
2023-05-09T08:22:21.833Z,32.50
2023-05-09T08:56:28.173Z,32.90
2023-05-09T09:17:01.897Z,32.20
2023-05-09T09:30:49.578Z,29.80
2023-05-09T09:47:55.977Z,28.80
2023-05-09T09:54:44.663Z,28.90
2023-05-09T10:33:11.710Z,31.10
2023-05-09T11:04:12.622Z,31.10
2023-05-09T11:18:11.076Z,31.10
2023-05-09T11:32:08.455Z,30.90
2023-05-09T11:39:06.350Z,31.30
2023-05-09T11:42:30.946Z,31.60
2023-05-09T11:49:20.651Z,31.90
2023-05-09T12:20:11.764Z,31.60
2023-05-09T12:23:37.470Z,31.50
2023-05-09T12:27:01.393Z,31.20
2023-05-09T12:30:24.949Z,31.00
2023-05-09T12:33:48.545Z,30.80
2023-05-09T12:37:17.303Z,30.60
2023-05-09T12:40:42.844Z,30.40
2023-05-09T12:44:07.223Z,30.20
2023-05-09T12:47:32.989Z,30.00
2023-05-09T12:50:56.507Z,29.80
2023-05-09T12:54:24.315Z,29.60
2023-05-09T12:58:02.432Z,29.40
2023-05-09T13:01:31.075Z,29.30
2023-05-09T13:05:08.978Z,29.20
2023-05-09T13:08:33.308Z,29.10
2023-05-09T13:11:56.858Z,29.00
2023-05-09T13:15:24.071Z,28.90
2023-05-09T13:18:47.688Z,28.90
2023-05-09T13:22:12.474Z,28.80
2023-05-09T13:25:36.322Z,28.70
2023-05-09T13:28:59.947Z,28.60
2023-05-09T13:32:25.717Z,28.40
2023-05-09T13:35:49.307Z,28.30
2023-05-09T13:39:13.460Z,28.20
2023-05-09T13:42:37.138Z,28.00
2023-05-09T13:46:00.742Z,27.90
2023-05-09T13:49:25.911Z,27.70
2023-05-09T13:52:49.986Z,27.60
2023-05-09T13:56:13.851Z,27.50
2023-05-09T13:59:37.943Z,27.40
2023-05-09T14:03:03.568Z,27.40
2023-05-09T14:06:28.955Z,27.40
2023-05-09T14:09:58.738Z,27.40
2023-05-09T14:13:32.192Z,27.40
2023-05-09T14:16:55.777Z,26.50
2023-05-09T14:20:19.238Z,27.30
2023-05-09T14:23:44.784Z,27.20
2023-05-09T14:27:08.379Z,27.10
2023-05-09T14:30:31.928Z,27.00
2023-05-09T14:33:55.469Z,26.90
2023-05-09T14:37:19.044Z,26.70
2023-05-09T14:40:43.978Z,26.70
2023-05-09T14:44:08.646Z,26.50
2023-05-09T14:47:32.280Z,26.30
2023-05-09T14:50:56.976Z,26.10
2023-05-09T14:54:20.590Z,25.90
2023-05-09T14:57:45.521Z,25.70
2023-05-09T15:01:09.047Z,25.40
2023-05-09T15:04:32.738Z,25.10
2023-05-09T15:07:56.391Z,24.90
2023-05-09T15:11:19.919Z,24.70
2023-05-09T15:14:44.748Z,24.60
2023-05-09T15:18:10.231Z,24.50
2023-05-09T15:21:34.929Z,24.50
2023-05-09T15:24:58.554Z,24.60
2023-05-09T15:28:22.055Z,24.70
2023-05-09T15:31:46.855Z,24.70
2023-05-09T15:35:10.910Z,24.70
2023-05-09T15:38:35.667Z,24.80
2023-05-09T15:41:59.472Z,24.80
2023-05-09T15:45:22.943Z,24.90
2023-05-09T15:48:47.949Z,25.00
2023-05-09T15:52:11.776Z,25.00
2023-05-09T15:55:35.581Z,25.10
2023-05-09T15:58:59.794Z,25.10
2023-05-09T16:02:23.821Z,25.10
2023-05-09T16:05:49.010Z,25.30
2023-05-09T16:09:13.469Z,25.10
2023-05-09T16:12:36.998Z,25.10
2023-05-09T16:16:01.415Z,25.10
2023-05-09T16:19:24.972Z,25.00
2023-05-09T16:22:50.185Z,25.00
2023-05-09T16:26:13.696Z,25.00
2023-05-09T16:29:37.236Z,24.90
2023-05-09T16:33:00.884Z,24.80
2023-05-09T16:36:24.553Z,24.70
2023-05-09T16:39:49.806Z,24.60
2023-05-09T16:43:13.354Z,24.50
2023-05-09T16:46:36.962Z,24.50
2023-05-09T16:50:00.630Z,24.50
2023-05-09T16:53:25.405Z,24.40
2023-05-09T16:56:51.924Z,24.40
2023-05-09T17:00:16.984Z,24.30
2023-05-09T17:03:40.708Z,24.30
2023-05-09T17:07:04.153Z,24.20
2023-05-09T17:10:27.714Z,24.20
2023-05-09T17:13:52.629Z,24.10
2023-05-09T17:17:17.597Z,24.00
2023-05-09T17:20:41.394Z,24.00
2023-05-09T17:24:05.500Z,23.90
2023-05-09T17:27:29.098Z,23.90
2023-05-09T17:30:54.022Z,23.80
2023-05-09T17:34:17.702Z,23.70
2023-05-09T17:37:41.250Z,23.70
2023-05-09T17:41:05.728Z,23.50
2023-05-09T17:44:29.864Z,23.30
2023-05-09T17:47:54.893Z,23.00
2023-05-09T17:51:18.598Z,22.60
2023-05-09T17:54:42.147Z,22.30
2023-05-09T17:58:06.841Z,22.10
2023-05-09T18:01:30.871Z,21.80
2023-05-09T18:04:55.902Z,21.60
2023-05-09T18:08:19.447Z,21.40
2023-05-09T18:11:42.973Z,21.50
2023-05-09T18:15:08.820Z,21.40
2023-05-09T18:18:32.429Z,21.10
2023-05-09T18:21:57.558Z,21.20
2023-05-09T18:25:21.448Z,21.10
2023-05-09T18:28:45.368Z,20.80
2023-05-09T18:32:08.955Z,20.80
2023-05-09T18:35:32.788Z,20.80
2023-05-09T18:38:57.708Z,20.80
2023-05-09T18:42:21.170Z,20.70
2023-05-09T18:45:47.915Z,20.70
2023-05-09T18:49:11.456Z,20.70
2023-05-09T18:52:35.264Z,20.60
2023-05-09T18:56:00.538Z,20.60
2023-05-09T18:59:25.172Z,20.60
2023-05-09T19:02:48.741Z,20.50
2023-05-09T19:06:13.715Z,20.50
2023-05-09T19:09:37.723Z,20.50
2023-05-09T19:13:02.647Z,20.40
2023-05-09T19:16:26.568Z,20.40
2023-05-09T19:19:50.540Z,20.50
2023-05-09T19:23:13.993Z,20.30
2023-05-09T19:26:37.513Z,20.30
2023-05-09T19:30:02.490Z,20.20
2023-05-09T19:33:26.479Z,20.20
2023-05-09T19:36:50.157Z,20.10
2023-05-09T19:40:14.294Z,20.10
2023-05-09T19:43:38.139Z,20.10
2023-05-09T19:47:05.257Z,20.10
2023-05-09T19:50:30.212Z,20.10
2023-05-09T19:53:53.874Z,20.00
2023-05-09T19:57:17.711Z,20.00
2023-05-09T20:00:41.176Z,19.90
2023-05-09T20:04:07.411Z,19.90
2023-05-09T20:07:31.113Z,19.80
2023-05-09T20:10:55.213Z,19.80
2023-05-09T20:14:18.748Z,19.70
2023-05-09T20:17:42.260Z,19.60
2023-05-09T20:21:09.689Z,19.50
2023-05-09T20:24:33.390Z,19.50
2023-05-09T20:27:56.936Z,19.40
2023-05-09T20:31:20.436Z,19.40
2023-05-09T20:34:43.999Z,19.40
2023-05-09T20:38:08.882Z,19.30
2023-05-09T20:41:34.758Z,19.30
2023-05-09T20:44:58.466Z,19.20
2023-05-09T20:48:23.576Z,19.10
2023-05-09T20:51:47.083Z,19.10
2023-05-09T20:55:12.137Z,19.00
2023-05-09T20:58:35.964Z,19.00
2023-05-09T21:01:59.529Z,19.10
2023-05-09T21:05:23.134Z,18.90
2023-05-09T21:08:47.691Z,19.00
2023-05-09T21:12:12.771Z,18.80
2023-05-09T21:15:36.293Z,18.80
2023-05-09T21:19:02.527Z,18.80
2023-05-09T21:22:26.103Z,18.80
2023-05-09T21:25:49.532Z,18.70
2023-05-09T21:29:15.395Z,18.70
2023-05-09T21:32:38.946Z,18.60
2023-05-09T21:36:02.632Z,18.60
2023-05-09T21:39:26.188Z,18.60
2023-05-09T21:42:49.696Z,18.70
2023-05-09T21:46:14.790Z,18.80
2023-05-09T21:49:39.486Z,18.60
2023-05-09T21:53:03.661Z,18.60
2023-05-09T21:56:27.201Z,18.60
2023-05-09T21:59:50.792Z,18.60
2023-05-09T22:03:15.853Z,18.60
2023-05-09T22:06:41.623Z,18.60
2023-05-09T22:10:07.023Z,18.60
2023-05-09T22:13:30.680Z,18.60
2023-05-09T22:16:54.265Z,18.60
2023-05-09T22:20:19.359Z,18.60
2023-05-09T22:23:43.108Z,18.70
2023-05-09T22:27:06.896Z,18.70
2023-05-09T22:30:31.438Z,18.70
2023-05-09T22:33:54.915Z,18.70
2023-05-09T22:37:20.229Z,18.70
2023-05-09T22:40:44.669Z,18.70
2023-05-09T22:44:08.285Z,18.70
2023-05-09T22:47:31.786Z,18.70
2023-05-09T22:50:55.285Z,18.70
2023-05-09T22:54:21.383Z,18.70
2023-05-09T22:57:44.889Z,18.70
2023-05-09T23:01:08.401Z,18.70
2023-05-09T23:04:31.950Z,18.70
2023-05-09T23:07:55.970Z,18.90
2023-05-09T23:11:22.008Z,18.80
2023-05-09T23:14:45.602Z,18.80
2023-05-09T23:18:09.155Z,18.70
2023-05-09T23:21:32.794Z,18.70
2023-05-09T23:24:56.254Z,18.70
2023-05-09T23:28:24.943Z,18.70
2023-05-09T23:31:48.520Z,18.60
2023-05-09T23:35:12.140Z,18.50
2023-05-09T23:38:35.706Z,18.40
2023-05-09T23:41:59.409Z,18.30
2023-05-09T23:45:24.378Z,18.30
2023-05-09T23:48:47.885Z,18.20
2023-05-09T23:52:11.454Z,18.10
2023-05-09T23:55:34.994Z,18.00
2023-05-09T23:58:58.476Z,18.00
